createdAt,value
2018-12-07T00:00:37.726Z,6.00
2018-12-07T00:01:37.803Z,4.90
2018-12-07T00:02:37.665Z,5.50
2018-12-07T00:03:37.767Z,6.10
2018-12-07T00:04:37.602Z,5.00
2018-12-07T00:05:37.579Z,6.20
2018-12-07T00:06:37.546Z,4.50
2018-12-07T00:07:37.591Z,5.40
2018-12-07T00:08:37.476Z,4.40
2018-12-07T00:09:37.503Z,5.10
2018-12-07T00:10:37.432Z,5.40
2018-12-07T00:11:37.519Z,4.50
2018-12-07T00:12:37.366Z,5.10
2018-12-07T00:13:38.596Z,5.20
2018-12-07T00:14:37.307Z,5.00
2018-12-07T00:15:37.335Z,5.50
2018-12-07T00:16:37.244Z,5.10
2018-12-07T00:18:28.544Z,5.90
2018-12-07T00:19:28.557Z,4.90
2018-12-07T00:20:28.436Z,5.50
2018-12-07T00:21:28.510Z,5.50
2018-12-07T00:22:28.423Z,5.50
2018-12-07T00:23:28.430Z,5.70
2018-12-07T00:24:28.347Z,6.10
2018-12-07T00:25:28.440Z,5.80
2018-12-07T00:26:28.245Z,6.50
2018-12-07T00:28:14.866Z,6.50
2018-12-07T00:29:14.850Z,6.20
2018-12-07T00:31:08.720Z,6.20
2018-12-07T00:32:08.351Z,6.50
2018-12-07T00:33:10.509Z,6.50
2018-12-07T00:34:08.311Z,6.40
2018-12-07T00:35:08.257Z,7.60
2018-12-07T00:36:08.241Z,7.00
2018-12-07T00:37:08.205Z,7.90
2018-12-07T00:38:08.186Z,7.30
2018-12-07T00:39:08.148Z,8.10
2018-12-07T00:40:08.103Z,8.40
2018-12-07T00:41:08.076Z,8.80
2018-12-07T00:42:08.052Z,9.20
2018-12-07T00:43:08.025Z,9.60
2018-12-07T00:44:09.094Z,10.20
2018-12-07T00:45:07.961Z,10.10
2018-12-07T00:46:08.083Z,10.30
2018-12-07T00:47:54.457Z,10.80
2018-12-07T00:48:55.530Z,10.80
2018-12-07T00:49:54.374Z,10.40
2018-12-07T00:50:54.345Z,11.40
2018-12-07T00:51:54.337Z,11.20
2018-12-07T00:52:54.291Z,10.90
2018-12-07T00:53:54.249Z,11.60
2018-12-07T00:54:54.219Z,11.90
2018-12-07T00:55:54.213Z,12.10
2018-12-07T00:57:41.917Z,13.60
2018-12-07T00:58:41.864Z,12.30
2018-12-07T00:59:41.864Z,12.70
2018-12-07T01:00:41.816Z,13.30
2018-12-07T01:01:41.806Z,12.60
2018-12-07T01:02:41.852Z,13.10
2018-12-07T01:03:41.715Z,12.70
2018-12-07T01:04:41.700Z,12.90
2018-12-07T01:05:41.678Z,12.90
2018-12-07T01:06:41.791Z,13.60
2018-12-07T01:07:41.593Z,13.30
2018-12-07T01:08:58.473Z,14.00
2018-12-07T01:09:41.568Z,13.50
2018-12-07T01:11:41.479Z,14.10
2018-12-07T01:55:12.873Z,14.50
2018-12-07T01:59:28.268Z,15.40
2018-12-07T02:21:15.043Z,14.60
2018-12-07T02:21:37.457Z,13.70
2018-12-07T02:22:37.430Z,13.10
2018-12-07T02:23:51.989Z,13.40
2018-12-07T02:24:37.369Z,13.20
2018-12-07T02:55:10.014Z,14.80
2018-12-07T02:56:25.875Z,14.90
2018-12-07T02:57:09.960Z,14.10
2018-12-07T02:58:38.818Z,15.00
2018-12-07T02:59:09.888Z,15.00
2018-12-07T03:00:09.815Z,15.70
2018-12-07T03:01:39.882Z,15.10
2018-12-07T03:57:20.806Z,17.80
2018-12-07T03:58:20.760Z,15.70
2018-12-07T03:59:49.538Z,15.50
2018-12-07T04:00:20.679Z,14.90
2018-12-07T04:04:30.184Z,14.80
2018-12-07T04:05:18.614Z,14.50
2018-12-07T04:06:18.537Z,15.00
2018-12-07T04:07:18.661Z,14.30
2018-12-07T04:09:12.780Z,14.80
2018-12-07T04:10:10.163Z,13.60
2018-12-07T04:11:11.185Z,12.80
2018-12-07T04:12:09.198Z,12.70
2018-12-07T04:13:09.166Z,12.70
2018-12-07T04:16:37.212Z,14.70
2018-12-07T04:17:39.131Z,14.00
2018-12-07T04:18:37.062Z,14.20
2018-12-07T04:19:38.775Z,13.20
2018-12-07T04:20:36.975Z,13.40
2018-12-07T04:21:36.966Z,13.40
2018-12-07T04:22:36.937Z,13.50
2018-12-07T04:23:43.843Z,13.80
2018-12-07T04:24:36.848Z,13.10
2018-12-07T04:27:11.384Z,16.40
2018-12-07T04:28:11.433Z,13.10
2018-12-07T04:29:11.329Z,13.30
2018-12-07T04:30:13.391Z,13.50
2018-12-07T04:31:11.311Z,13.90
2018-12-07T04:32:11.219Z,14.50
2018-12-07T04:34:14.295Z,14.70
2018-12-07T04:35:14.334Z,15.00
2018-12-07T04:36:14.233Z,14.30
2018-12-07T04:37:21.924Z,14.00
2018-12-07T04:38:14.172Z,13.00
2018-12-07T04:39:14.151Z,13.00
2018-12-07T04:40:14.120Z,13.10
2018-12-07T04:42:24.599Z,16.50
2018-12-07T04:44:21.186Z,13.50
2018-12-07T04:45:21.214Z,12.90
2018-12-07T04:46:21.131Z,13.10
2018-12-07T04:47:21.221Z,12.90
2018-12-07T04:48:21.051Z,12.50
2018-12-07T04:49:21.101Z,13.20
2018-12-07T04:50:20.969Z,12.90
2018-12-07T04:52:12.852Z,12.40
2018-12-07T04:53:12.766Z,12.60
2018-12-07T04:54:13.180Z,11.60
2018-12-07T04:55:12.681Z,11.60
2018-12-07T04:57:05.084Z,12.30
2018-12-07T04:58:04.755Z,12.40
2018-12-07T04:59:04.708Z,10.40
2018-12-07T05:00:04.661Z,10.80
2018-12-07T05:01:05.146Z,10.60
2018-12-07T05:01:58.611Z,14.50
2018-12-07T05:02:56.926Z,10.80
2018-12-07T05:03:56.919Z,10.10
2018-12-07T05:04:56.905Z,9.70
2018-12-07T05:05:56.873Z,10.00
2018-12-07T05:06:57.131Z,10.80
2018-12-07T05:07:56.862Z,10.40
2018-12-07T05:08:56.741Z,10.60
2018-12-07T05:09:56.746Z,9.70
2018-12-07T05:10:56.685Z,8.60
2018-12-07T05:12:45.915Z,10.00
2018-12-07T05:13:45.786Z,10.10
2018-12-07T05:14:45.622Z,10.10
2018-12-07T05:15:45.689Z,9.50
2018-12-07T05:16:45.579Z,9.30
2018-12-07T05:17:45.634Z,9.20
2018-12-07T05:18:45.530Z,9.30
2018-12-07T05:19:45.553Z,9.20
2018-12-07T05:20:45.490Z,9.40
2018-12-07T05:24:45.063Z,10.70
2018-12-07T05:25:48.168Z,9.30
2018-12-07T05:26:44.855Z,9.30
2018-12-07T05:27:44.782Z,9.90
2018-12-07T05:28:45.132Z,10.30
2018-12-07T05:30:43.798Z,10.80
2018-12-07T05:31:42.424Z,9.90
2018-12-07T05:32:42.403Z,9.50
2018-12-07T05:33:42.434Z,9.10
2018-12-07T05:34:42.413Z,8.90
2018-12-07T05:35:44.410Z,9.60
2018-12-07T05:36:42.823Z,10.20
2018-12-07T05:37:44.256Z,10.10
2018-12-07T05:38:42.167Z,10.10
2018-12-07T05:39:43.230Z,10.70
2018-12-07T05:41:36.844Z,10.40
2018-12-07T05:42:35.367Z,10.60
2018-12-07T05:43:35.331Z,10.00
2018-12-07T05:44:35.251Z,9.80
2018-12-07T05:45:36.071Z,10.20
2018-12-07T05:46:27.706Z,12.70
2018-12-07T05:58:53.879Z,16.50
2018-12-07T15:58:53.995Z,21.10
2018-12-07T16:02:18.968Z,13.80
2018-12-07T16:03:29.273Z,13.90
2018-12-07T16:04:16.035Z,6.00
2018-12-07T16:07:00.107Z,13.20
2018-12-07T16:08:53.160Z,14.60
2018-12-07T16:10:48.980Z,3.70
2018-12-07T16:12:33.789Z,9.80
2018-12-07T16:14:40.741Z,10.90
2018-12-07T16:16:06.010Z,8.00
2018-12-07T16:19:09.575Z,9.40
2018-12-07T16:20:11.665Z,2.90
2018-12-07T16:21:09.266Z,3.00
2018-12-07T16:22:12.708Z,2.70
2018-12-07T16:23:09.305Z,7.20
2018-12-07T16:24:24.919Z,2.80
2018-12-07T16:25:09.570Z,1.90
2018-12-07T16:26:24.027Z,3.20
2018-12-07T16:30:22.781Z,9.20
2018-12-07T16:31:07.432Z,2.00
2018-12-07T16:32:22.688Z,2.70
2018-12-07T16:33:11.323Z,1.60
2018-12-07T16:43:16.696Z,6.80
2018-12-07T16:44:11.987Z,3.60
2018-12-07T16:48:56.395Z,2.70
2018-12-07T16:49:57.122Z,4.30
2018-12-07T16:51:43.944Z,10.00
2018-12-07T16:52:46.142Z,4.60
2018-12-07T16:59:26.394Z,6.20
2018-12-07T17:00:36.364Z,3.40
2018-12-07T17:01:26.239Z,1.90
2018-12-07T17:03:31.243Z,1.60
2018-12-07T17:12:11.086Z,6.10
2018-12-07T17:14:04.229Z,2.00
2018-12-07T17:15:05.056Z,3.10
2018-12-07T17:16:47.191Z,3.50
2018-12-07T17:17:08.951Z,1.70
2018-12-07T17:19:27.295Z,9.30
2018-12-07T17:21:23.522Z,2.10
2018-12-07T17:22:23.863Z,2.40
2018-12-07T17:27:40.160Z,8.70
2018-12-07T17:33:27.243Z,12.60
2018-12-07T17:34:18.655Z,5.00
2018-12-07T17:35:14.278Z,2.90
2018-12-07T17:41:11.158Z,9.40
2018-12-07T17:44:10.871Z,2.30
2018-12-07T17:46:24.822Z,7.70
2018-12-07T17:47:10.678Z,1.90
2018-12-07T17:48:08.020Z,1.90
2018-12-07T17:49:06.698Z,3.00
2018-12-07T17:51:13.885Z,1.80
2018-12-07T17:52:07.911Z,2.00
2018-12-07T17:59:08.339Z,8.70
2018-12-07T18:00:07.790Z,4.50
2018-12-07T18:01:20.476Z,3.40
2018-12-07T18:04:25.337Z,6.80
2018-12-07T18:05:17.502Z,2.60
2018-12-07T18:06:17.568Z,3.60
2018-12-07T18:07:17.510Z,3.30
2018-12-07T18:08:23.365Z,3.50
2018-12-07T18:09:23.826Z,3.50
2018-12-07T19:14:51.101Z,2.90
2018-12-07T21:51:19.376Z,3.70
2018-12-07T21:52:19.240Z,3.40
2018-12-07T21:54:13.744Z,4.10
2018-12-07T21:55:13.667Z,3.10
2018-12-07T21:56:13.500Z,3.10
2018-12-07T21:57:13.610Z,3.20
2018-12-07T21:58:13.556Z,3.40
2018-12-07T21:59:13.617Z,3.20
2018-12-07T22:00:13.501Z,3.60
2018-12-07T22:01:13.939Z,3.80
2018-12-07T22:02:13.301Z,3.20
2018-12-07T22:03:13.419Z,3.20
2018-12-07T22:04:14.126Z,4.50
2018-12-07T22:05:14.071Z,3.80
2018-12-07T22:06:14.068Z,3.00
2018-12-07T22:07:14.028Z,2.90
2018-12-07T22:08:14.028Z,3.30
2018-12-07T22:09:14.262Z,3.20
2018-12-07T22:10:14.004Z,3.80
2018-12-07T22:11:13.898Z,3.20
2018-12-07T22:13:01.242Z,3.60
2018-12-07T22:14:01.102Z,3.20
2018-12-07T22:15:01.173Z,2.70
2018-12-07T22:16:00.980Z,3.20
2018-12-07T22:17:01.099Z,3.80
2018-12-07T22:18:00.976Z,3.40
2018-12-07T22:19:01.107Z,3.90
2018-12-07T22:20:00.979Z,3.30
2018-12-07T22:21:01.187Z,3.10
2018-12-07T22:21:50.624Z,3.90
2018-12-07T22:22:50.828Z,3.40
2018-12-07T22:23:50.658Z,3.30
2018-12-07T22:24:50.620Z,2.70
2018-12-07T22:25:50.704Z,3.00
2018-12-07T22:26:50.634Z,3.00
2018-12-07T22:27:50.629Z,2.50
2018-12-07T22:28:50.497Z,3.00
2018-12-07T22:29:50.411Z,2.50
2018-12-07T22:30:50.411Z,3.10
2018-12-07T22:31:51.212Z,2.70
2018-12-07T22:34:20.207Z,2.90
2018-12-07T22:35:20.620Z,2.50
2018-12-07T22:36:20.421Z,2.50
2018-12-07T22:37:20.438Z,2.20
2018-12-07T22:38:20.306Z,2.80
2018-12-07T22:39:20.370Z,2.80
2018-12-07T22:40:20.192Z,2.40
2018-12-07T22:41:20.162Z,2.30
2018-12-07T22:42:20.307Z,2.30
2018-12-07T22:43:20.049Z,2.40
2018-12-07T22:44:20.197Z,2.50
2018-12-07T22:45:20.185Z,2.60
2018-12-07T22:46:20.193Z,2.80
2018-12-07T22:47:19.815Z,2.50
2018-12-07T22:48:19.819Z,2.90
2018-12-07T22:49:19.707Z,2.90
2018-12-07T22:50:19.680Z,3.40
2018-12-07T22:51:19.829Z,3.00
2018-12-07T22:52:19.607Z,2.90
2018-12-07T22:53:19.608Z,2.80
2018-12-07T22:55:06.401Z,2.90
2018-12-07T22:56:06.262Z,3.40
2018-12-07T22:57:06.346Z,2.80
2018-12-07T22:58:06.227Z,3.10
2018-12-07T22:59:06.306Z,3.30
2018-12-07T23:00:06.189Z,3.50
2018-12-07T23:01:06.088Z,3.50
2018-12-07T23:02:06.059Z,3.30
2018-12-07T23:03:06.024Z,3.30
2018-12-07T23:04:06.029Z,2.90
2018-12-07T23:05:05.962Z,4.00
2018-12-07T23:06:05.943Z,3.00
2018-12-07T23:07:06.041Z,3.10
2018-12-07T23:08:05.875Z,3.60
2018-12-07T23:09:05.954Z,3.60
2018-12-07T23:10:05.815Z,3.30
2018-12-07T23:11:53.502Z,4.40
2018-12-07T23:12:53.296Z,3.80
2018-12-07T23:13:53.318Z,3.20
2018-12-07T23:14:53.249Z,4.00
2018-12-07T23:15:53.250Z,4.20
2018-12-07T23:16:53.205Z,4.20
2018-12-07T23:17:53.141Z,3.80
2018-12-07T23:18:53.215Z,4.30
2018-12-07T23:19:53.078Z,3.90
2018-12-07T23:20:53.148Z,3.90
2018-12-07T23:22:40.515Z,3.80
2018-12-07T23:23:40.631Z,3.40
2018-12-07T23:24:40.426Z,3.20
2018-12-07T23:25:40.499Z,3.70
2018-12-07T23:26:40.387Z,3.70
2018-12-07T23:27:40.489Z,3.70
2018-12-07T23:28:40.311Z,4.10
2018-12-07T23:29:40.281Z,3.50
2018-12-07T23:30:40.247Z,3.70
2018-12-07T23:31:40.341Z,4.00
2018-12-07T23:32:40.208Z,4.00
2018-12-07T23:33:40.227Z,3.50
2018-12-07T23:34:40.162Z,3.50
2018-12-07T23:36:27.727Z,4.30
2018-12-07T23:37:27.756Z,3.80
2018-12-07T23:38:27.698Z,3.00
2018-12-07T23:39:27.639Z,4.00
2018-12-07T23:40:27.560Z,3.50
2018-12-07T23:41:27.542Z,3.50
2018-12-07T23:42:27.504Z,4.20
2018-12-07T23:43:27.474Z,3.30
2018-12-07T23:44:27.447Z,3.00
2018-12-07T23:45:27.496Z,4.30
2018-12-07T23:46:27.378Z,3.20
2018-12-07T23:47:27.357Z,3.60
2018-12-07T23:48:27.310Z,3.20
2018-12-07T23:49:27.306Z,3.10
2018-12-07T23:50:27.256Z,3.50
2018-12-07T23:51:27.349Z,3.70
2018-12-07T23:52:27.251Z,3.10
2018-12-07T23:53:27.193Z,3.80
2018-12-07T23:54:27.129Z,3.20
2018-12-07T23:55:27.126Z,3.20
2018-12-07T23:56:27.177Z,3.30
2018-12-07T23:57:27.045Z,3.70
2018-12-07T23:59:16.456Z,3.60
